Time;durP1;ratioP1;P1;durP2;ratioP2;P2;SDS_P1;SDS_P2;PMS_P1;PMS_P2;Temp;Humidity;BMP_temperature;BMP_pressure;BME280_temperature;BME280_humidity;BME280_pressure;Samples;Min_cycle;Max_cycle;Signal;HPM_P1;HPM_P2
2022/09/25 00:00:35;;;;;;;3.50;3.20;;;;;;;23.09;54.00;97072.34;5016803;28;20237;-31
2022/09/25 00:03:02;;;;;;;3.63;3.33;;;;;;;23.10;53.82;97066.38;5014425;28;20205;-31
2022/09/25 00:05:29;;;;;;;3.70;3.30;;;;;;;23.09;53.88;97068.09;5025509;28;20209;-31
2022/09/25 00:07:55;;;;;;;3.23;2.93;;;;;;;23.09;53.99;97067.22;5027018;28;20209;-31
2022/09/25 00:10:24;;;;;;;4.10;3.70;;;;;;;23.07;53.86;97064.63;5016792;28;20226;-31
2022/09/25 00:12:50;;;;;;;3.00;2.80;;;;;;;23.10;53.96;97074.94;5014014;28;20206;-31
2022/09/25 00:15:17;;;;;;;3.80;3.50;;;;;;;23.06;53.99;97062.03;5021475;28;20201;-31
2022/09/25 00:17:44;;;;;;;3.40;3.10;;;;;;;23.10;53.98;97068.94;5021917;28;20222;-31
2022/09/25 00:20:10;;;;;;;3.47;3.17;;;;;;;23.09;53.98;97075.78;5020926;28;20217;-31
2022/09/25 00:22:37;;;;;;;3.47;3.17;;;;;;;23.10;53.86;97081.75;5011539;28;20206;-31
2022/09/25 00:25:04;;;;;;;3.23;2.97;;;;;;;23.09;54.01;97075.78;5025030;28;20613;-31
2022/09/25 00:27:31;;;;;;;3.57;3.07;;;;;;;23.10;53.97;97074.06;5020833;28;20213;-31
2022/09/25 00:29:59;;;;;;;4.27;3.37;;;;;;;23.10;53.92;97066.38;5021396;28;20222;-31
2022/09/25 00:32:26;;;;;;;3.60;3.30;;;;;;;23.10;53.93;97074.06;5028535;28;20220;-31
2022/09/25 00:34:52;;;;;;;3.23;2.90;;;;;;;23.10;54.00;97061.25;5015577;28;20209;-31
2022/09/25 00:37:19;;;;;;;3.60;3.30;;;;;;;23.10;53.84;97063.81;5019948;28;20221;-31
2022/09/25 00:39:45;;;;;;;3.60;3.30;;;;;;;23.11;53.99;97057.84;5019372;28;20251;-31
2022/09/25 00:42:12;;;;;;;3.20;2.90;;;;;;;23.05;54.00;97043.25;5017149;28;20212;-31
2022/09/25 00:44:57;;;;;;;3.40;3.10;;;;;;;23.10;53.96;97053.56;5025960;28;20559;-31
2022/09/25 00:47:34;;;;;;;3.03;2.83;;;;;;;23.10;54.04;97062.13;5019542;28;20205;-31
2022/09/25 00:50:01;;;;;;;3.30;3.00;;;;;;;23.04;53.96;97054.31;5027079;28;20225;-31
2022/09/25 00:52:27;;;;;;;3.53;3.23;;;;;;;23.10;53.96;97061.25;5028217;28;20661;-31
2022/09/25 00:54:57;;;;;;;3.30;3.10;;;;;;;23.09;53.99;97056.94;5009552;28;20205;-31
2022/09/25 00:57:28;;;;;;;3.50;3.10;;;;;;;23.04;54.08;97050.91;5009991;28;20217;-31
2022/09/25 00:59:58;;;;;;;3.40;3.10;;;;;;;23.00;54.09;97051.69;5008018;28;20232;-31
2022/09/25 01:02:29;;;;;;;3.60;3.30;;;;;;;23.09;53.99;97067.22;5038532;28;20214;-31
2022/09/25 01:04:58;;;;;;;3.30;3.10;;;;;;;23.07;53.99;97061.22;5025385;28;20206;-31
2022/09/25 01:07:24;;;;;;;4.63;3.13;;;;;;;23.10;54.19;97061.25;5012750;28;20205;-31
2022/09/25 01:09:51;;;;;;;3.50;3.00;;;;;;;23.09;54.07;97067.22;5015038;28;20221;-31
2022/09/25 01:12:18;;;;;;;2.83;2.63;;;;;;;23.09;53.95;97068.09;5013747;28;20218;-31
2022/09/25 01:14:44;;;;;;;3.47;3.17;;;;;;;23.09;54.06;97057.81;5017510;28;20217;-31
2022/09/25 01:17:28;;;;;;;3.20;2.90;;;;;;;23.09;53.93;97062.94;5023586;28;20228;-31
2022/09/25 01:20:39;;;;;;;3.27;2.97;;;;;;;23.10;53.97;97084.34;5029825;28;20232;-31
2022/09/25 01:23:19;;;;;;;3.33;3.03;;;;;;;23.09;54.13;97059.50;5013266;28;20221;-31
2022/09/25 01:26:13;;;;;;;3.30;3.00;;;;;;;23.09;53.97;97060.38;5027586;28;20598;-31
2022/09/25 01:29:05;;;;;;;3.30;3.00;;;;;;;23.09;53.98;97057.81;5015820;28;20197;-31
2022/09/25 01:31:52;;;;;;;3.10;2.90;;;;;;;23.00;54.11;97037.19;5023039;28;20206;-31
2022/09/25 01:34:25;;;;;;;3.47;3.17;;;;;;;23.09;53.89;97059.50;5007085;28;20236;-31
2022/09/25 01:37:03;;;;;;;3.43;3.13;;;;;;;23.09;54.13;97051.81;5024681;28;20852;-31
2022/09/25 01:39:32;;;;;;;3.30;3.00;;;;;;;23.09;54.06;97039.88;5024675;28;20268;-31
2022/09/25 01:42:07;;;;;;;3.50;3.20;;;;;;;23.06;53.93;97044.97;5008826;28;20201;-31
2022/09/25 01:44:36;;;;;;;3.40;3.10;;;;;;;23.10;53.98;97036.50;5002473;28;20205;-31
2022/09/25 01:47:11;;;;;;;3.00;2.70;;;;;;;23.04;54.00;97031.25;5022789;28;20197;-31
2022/09/25 01:49:41;;;;;;;3.27;2.97;;;;;;;23.10;54.04;97038.19;5009539;28;20799;-31
2022/09/25 01:52:17;;;;;;;3.47;2.90;;;;;;;23.03;54.03;97015.84;5006457;28;20202;-31
2022/09/25 01:54:46;;;;;;;2.90;2.70;;;;;;;23.04;54.12;97017.59;5016090;28;20198;-31
2022/09/25 01:57:26;;;;;;;3.20;2.90;;;;;;;23.09;54.09;97029.63;5003835;28;20228;-31
2022/09/25 02:00:27;;;;;;;3.47;3.10;;;;;;;23.10;54.13;97022.81;5017674;28;20248;-31
2022/09/25 02:02:59;;;;;;;3.07;2.87;;;;;;;23.09;54.10;97023.63;5011716;28;20212;-31
2022/09/25 02:05:32;;;;;;;3.40;3.10;;;;;;;23.08;54.15;97022.78;5023411;28;20210;-31
2022/09/25 02:08:04;;;;;;;3.77;3.20;;;;;;;23.07;54.26;97027.91;5011928;28;20201;-31
2022/09/25 02:10:34;;;;;;;3.07;2.87;;;;;;;23.00;54.29;97011.56;5025758;28;20221;-31
2022/09/25 02:13:12;;;;;;;2.87;2.67;;;;;;;23.03;54.11;97018.41;5012213;28;20209;-31
2022/09/25 02:15:41;;;;;;;3.87;2.97;;;;;;;22.98;54.27;97007.25;5021974;28;20238;-31
2022/09/25 02:21:01;;;;;;;3.10;2.90;;;;;;;23.08;54.14;97022.78;5037363;28;20548;-31
2022/09/25 02:23:52;;;;;;;3.10;2.80;;;;;;;23.09;54.29;97028.75;5017908;28;20205;-31
2022/09/25 02:26:30;;;;;;;4.30;3.07;;;;;;;23.09;54.25;97031.31;5016401;28;20206;-31
2022/09/25 02:28:57;;;;;;;3.20;2.90;;;;;;;23.03;54.23;97014.16;5015390;28;20225;-31
2022/09/25 02:31:53;;;;;;;3.00;2.80;;;;;;;23.09;54.05;97026.19;5030436;28;20201;-31
2022/09/25 02:34:21;;;;;;;2.90;2.70;;;;;;;23.06;54.15;97018.47;5024211;28;20213;-31
2022/09/25 02:36:47;;;;;;;3.17;2.87;;;;;;;22.89;54.16;97002.81;5024350;28;20581;-31
2022/09/25 02:39:15;;;;;;;3.30;3.00;;;;;;;23.10;54.11;97040.75;5022176;28;20241;-31
2022/09/25 02:41:56;;;;;;;3.03;2.83;;;;;;;23.10;54.15;97038.19;5005691;28;20206;-31
2022/09/25 02:44:38;;;;;;;2.77;2.57;;;;;;;23.06;54.13;97029.59;5012036;28;20202;-31
2022/09/25 02:47:09;;;;;;;2.93;2.70;;;;;;;23.09;54.09;97033.88;5019495;28;20210;-31
2022/09/25 02:49:50;;;;;;;3.10;2.90;;;;;;;23.09;54.31;97034.75;5024322;28;20218;-31
2022/09/25 02:52:33;;;;;;;3.17;2.83;;;;;;;23.09;54.26;97042.44;5022259;28;20217;-31
2022/09/25 02:55:05;;;;;;;3.17;2.87;;;;;;;23.09;54.09;97039.88;5032957;28;20769;-31
2022/09/25 02:57:31;;;;;;;2.83;2.63;;;;;;;23.09;54.06;97039.88;5029587;28;20224;-31
2022/09/25 02:59:59;;;;;;;3.33;3.03;;;;;;;23.09;54.06;97042.44;5024082;28;20218;-31
2022/09/25 03:02:26;;;;;;;3.10;2.80;;;;;;;23.09;54.26;97037.31;5014543;28;20213;-31
2022/09/25 03:04:53;;;;;;;3.00;2.80;;;;;;;23.08;54.10;97039.84;5013252;28;20213;-31
2022/09/25 03:07:20;;;;;;;3.60;3.30;;;;;;;23.09;54.02;97049.25;5012207;28;20205;-31
2022/09/25 03:09:46;;;;;;;3.07;2.87;;;;;;;23.09;54.24;97046.69;5019599;28;20646;-31
2022/09/25 03:12:13;;;;;;;3.37;2.83;;;;;;;23.06;54.32;97031.28;5006465;28;20216;-31
2022/09/25 03:14:40;;;;;;;3.30;3.00;;;;;;;23.09;54.41;97039.00;5020088;28;20680;-31
2022/09/25 03:17:06;;;;;;;3.00;2.80;;;;;;;23.09;54.28;97039.00;5024302;28;20489;-31
2022/09/25 03:19:37;;;;;;;3.07;2.87;;;;;;;23.08;54.15;97030.47;5019813;28;20232;-31
2022/09/25 03:22:03;;;;;;;2.73;2.53;;;;;;;23.09;54.29;97028.75;5015900;28;20211;-31
2022/09/25 03:24:30;;;;;;;3.33;2.97;;;;;;;23.06;54.23;97018.47;5031567;28;20221;-31
2022/09/25 03:26:56;;;;;;;3.17;2.93;;;;;;;23.09;54.50;97021.06;5023763;28;20681;-31
2022/09/25 03:29:23;;;;;;;3.13;2.83;;;;;;;23.09;54.15;97021.94;5019813;28;20222;-31
2022/09/25 03:31:50;;;;;;;3.23;2.93;;;;;;;23.04;54.25;97008.19;5025939;28;20198;-31
2022/09/25 03:34:17;;;;;;;3.00;2.70;;;;;;;23.06;54.16;97014.22;5013089;28;20647;-31
2022/09/25 03:36:46;;;;;;;2.90;2.70;;;;;;;23.10;54.26;97020.25;5025685;28;20308;-31
2022/09/25 03:39:14;;;;;;;3.00;2.80;;;;;;;23.08;54.13;97022.78;5029500;28;20796;-31
2022/09/25 03:41:42;;;;;;;2.93;2.73;;;;;;;23.09;54.24;97021.94;5019349;28;20205;-31
2022/09/25 03:44:08;;;;;;;2.80;2.60;;;;;;;23.09;54.16;97015.94;5019248;28;20213;-31
2022/09/25 03:46:35;;;;;;;3.13;2.83;;;;;;;23.09;54.31;97021.06;5023158;28;20208;-31
2022/09/25 03:49:02;;;;;;;3.20;2.90;;;;;;;23.04;54.25;97008.19;5028346;28;20218;-31
2022/09/25 03:51:29;;;;;;;2.83;2.63;;;;;;;23.10;54.29;97022.81;5015269;28;20210;-31
2022/09/25 03:53:55;;;;;;;3.10;2.90;;;;;;;23.10;54.09;97027.94;5017734;28;20669;-31
2022/09/25 03:56:24;;;;;;;3.20;3.00;;;;;;;23.04;54.33;97012.47;5029907;28;20213;-31
2022/09/25 03:58:53;;;;;;;2.60;2.40;;;;;;;23.02;54.20;97003.88;5029157;28;20735;-31
2022/09/25 04:01:20;;;;;;;3.87;2.50;;;;;;;23.11;54.23;97014.28;5016688;28;20206;-31
2022/09/25 04:03:47;;;;;;;3.23;2.93;;;;;;;23.11;54.14;97016.84;5026759;28;20213;-31
2022/09/25 04:06:18;;;;;;;2.63;2.43;;;;;;;23.11;54.24;97004.03;5020580;28;20203;-31
2022/09/25 04:08:45;;;;;;;2.93;2.73;;;;;;;23.07;54.17;97007.38;5024016;28;20309;-31
2022/09/25 04:11:12;;;;;;;3.00;2.80;;;;;;;23.10;54.13;97007.44;5030586;28;20209;-31
2022/09/25 04:13:42;;;;;;;2.60;2.40;;;;;;;23.10;54.14;97004.88;5028677;28;20205;-31
2022/09/25 04:16:09;;;;;;;3.00;2.80;;;;;;;23.04;54.03;96991.97;5019029;28;20206;-31
2022/09/25 04:18:36;;;;;;;3.17;2.87;;;;;;;23.10;54.34;97002.31;5019678;28;20716;-31
2022/09/25 04:21:04;;;;;;;3.07;2.80;;;;;;;23.09;54.32;96998.00;5030017;28;20465;-31
2022/09/25 04:23:31;;;;;;;3.17;2.90;;;;;;;23.07;54.51;96995.41;5029576;28;20347;-31
2022/09/25 04:25:57;;;;;;;2.80;2.60;;;;;;;23.08;54.17;96991.16;5026386;28;20592;-31
2022/09/25 04:28:24;;;;;;;3.17;2.90;;;;;;;22.42;54.51;96873.16;5021977;28;20209;-31
2022/09/25 04:30:50;;;;;;;3.00;2.70;;;;;;;23.06;54.54;96982.56;5015497;28;20205;-31
2022/09/25 04:36:03;;;;;;;2.83;2.63;;;;;;;23.00;54.48;96961.97;5016238;28;20217;-31
2022/09/25 04:38:32;;;;;;;3.17;2.97;;;;;;;23.08;54.47;96981.78;5025656;28;20225;-31
2022/09/25 04:41:00;;;;;;;2.90;2.70;;;;;;;23.07;54.47;96974.91;5021509;28;20213;-31
2022/09/25 04:43:30;;;;;;;2.90;2.70;;;;;;;23.07;54.55;96971.50;5014896;28;20291;-31
2022/09/25 04:46:04;;;;;;;2.90;2.70;;;;;;;23.07;54.50;96971.50;5025466;28;20209;-31
2022/09/25 04:48:31;;;;;;;2.90;2.70;;;;;;;23.07;54.46;96981.75;5024849;28;20205;-31
2022/09/25 04:50:57;;;;;;;2.83;2.63;;;;;;;23.06;54.51;96975.75;5016848;28;20209;-31
2022/09/25 04:53:25;;;;;;;3.00;2.80;;;;;;;23.08;54.57;96980.91;5016188;28;20201;-31
2022/09/25 04:55:53;;;;;;;3.93;3.10;;;;;;;23.07;54.70;96982.59;5019837;28;20197;-31
2022/09/25 04:58:19;;;;;;;2.97;2.77;;;;;;;23.07;54.62;96987.72;5023035;28;20229;-31
2022/09/25 05:00:46;;;;;;;2.90;2.70;;;;;;;23.08;54.46;97004.84;5018320;28;20248;-31
2022/09/25 05:03:13;;;;;;;2.47;2.37;;;;;;;23.08;54.51;96991.16;5029560;28;20212;-31
2022/09/25 05:05:39;;;;;;;3.20;2.90;;;;;;;23.08;54.62;96991.16;5020080;28;20205;-31
2022/09/25 05:08:06;;;;;;;2.93;2.73;;;;;;;23.03;54.59;96990.22;5019318;28;20206;-31
2022/09/25 05:10:38;;;;;;;2.63;2.43;;;;;;;23.05;54.50;96989.44;5026727;28;20232;-31
2022/09/25 05:13:04;;;;;;;2.63;2.43;;;;;;;23.09;54.62;96995.44;5024329;28;20756;-31
2022/09/25 05:15:32;;;;;;;3.00;2.80;;;;;;;23.06;54.52;97006.50;5025783;28;20208;-31
2022/09/25 05:18:06;;;;;;;2.90;2.60;;;;;;;23.09;54.53;97009.13;5029232;28;20248;-31
2022/09/25 05:20:36;;;;;;;2.87;2.67;;;;;;;23.10;54.63;97013.44;5023126;28;20236;-31
2022/09/25 05:23:03;;;;;;;2.60;2.40;;;;;;;23.10;54.24;97016.00;5027685;28;20206;-31
2022/09/25 05:25:29;;;;;;;2.80;2.60;;;;;;;23.09;54.50;97011.69;5024029;28;20218;-31
2022/09/25 05:27:57;;;;;;;2.80;2.60;;;;;;;23.06;54.52;97001.38;5023985;28;20197;-31
2022/09/25 05:30:28;;;;;;;2.83;2.60;;;;;;;23.10;54.57;97016.00;5022745;28;20229;-31
2022/09/25 05:32:57;;;;;;;2.60;2.40;;;;;;;23.06;54.50;97008.22;5025340;28;20207;-31
2022/09/25 05:35:26;;;;;;;2.77;2.57;;;;;;;23.12;54.44;97005.78;5024425;28;20557;-31
2022/09/25 05:37:52;;;;;;;2.77;2.50;;;;;;;23.12;54.29;97010.91;5025441;28;21132;-31
2022/09/25 05:40:19;;;;;;;2.90;2.70;;;;;;;23.08;54.49;97003.97;5024101;28;20234;-31
2022/09/25 05:42:46;;;;;;;2.87;2.67;;;;;;;23.12;54.45;97014.28;5026025;28;20312;-31
2022/09/25 05:45:14;;;;;;;3.17;2.87;;;;;;;23.12;54.50;97022.00;5025664;28;20590;-31
2022/09/25 05:47:40;;;;;;;2.83;2.63;;;;;;;23.13;54.60;97021.16;5026522;28;20204;-31
2022/09/25 05:50:08;;;;;;;3.10;2.90;;;;;;;23.13;54.56;97025.41;5024069;28;20230;-31
2022/09/25 05:52:34;;;;;;;2.60;2.40;;;;;;;23.15;54.64;97028.88;5023327;28;20201;-31
2022/09/25 05:55:02;;;;;;;3.00;2.80;;;;;;;23.14;54.54;97025.44;5021495;28;20202;-31
2022/09/25 05:57:32;;;;;;;3.10;2.90;;;;;;;23.06;54.57;97005.66;5022673;28;20209;-31
2022/09/25 05:59:59;;;;;;;3.23;2.93;;;;;;;23.15;54.58;97023.75;5021340;28;20229;-31
2022/09/25 06:02:25;;;;;;;2.77;2.57;;;;;;;23.16;54.48;97022.91;5022959;28;20289;-31
2022/09/25 06:04:52;;;;;;;2.80;2.60;;;;;;;23.12;54.57;97008.34;5021652;28;20197;-31
2022/09/25 06:07:18;;;;;;;3.00;2.80;;;;;;;23.07;54.50;97000.53;5021902;28;20208;-31
2022/09/25 06:09:45;;;;;;;2.90;2.70;;;;;;;23.16;54.49;97016.09;5027681;28;20221;-31
2022/09/25 06:12:11;;;;;;;2.40;2.20;;;;;;;23.12;54.50;96993.78;5023920;28;20205;-31
2022/09/25 06:14:39;;;;;;;2.80;2.60;;;;;;;23.16;54.51;96997.28;5028260;28;20672;-31
2022/09/25 06:17:06;;;;;;;2.70;2.50;;;;;;;23.16;54.63;96998.16;5024874;28;20208;-31
2022/09/25 06:19:34;;;;;;;2.80;2.60;;;;;;;23.17;54.64;97001.53;5028299;28;20225;-31
2022/09/25 06:22:00;;;;;;;3.43;3.13;;;;;;;23.17;54.62;96991.28;5023184;28;20208;-31
2022/09/25 06:24:27;;;;;;;2.70;2.50;;;;;;;23.18;54.64;96993.03;5025212;28;20211;-31
2022/09/25 06:26:53;;;;;;;2.87;2.67;;;;;;;23.11;54.76;96976.69;5024024;28;20201;-31
2022/09/25 06:29:20;;;;;;;2.53;2.37;;;;;;;23.18;54.57;96980.22;5024302;28;20214;-31
2022/09/25 06:31:46;;;;;;;2.87;2.67;;;;;;;23.18;54.67;97000.72;5025749;28;20221;-31
2022/09/25 06:34:13;;;;;;;3.00;2.80;;;;;;;23.19;54.61;96994.75;5017917;28;20202;-31
2022/09/25 06:36:39;;;;;;;2.77;2.57;;;;;;;23.18;54.75;96993.03;5020154;28;20209;-31
2022/09/25 06:39:06;;;;;;;2.77;2.57;;;;;;;23.18;54.49;96990.47;5021405;28;20312;-31
2022/09/25 06:41:32;;;;;;;2.83;2.63;;;;;;;22.97;54.97;96951.69;5025046;28;20201;-31
2022/09/25 06:43:59;;;;;;;2.60;2.40;;;;;;;23.18;54.81;96993.88;5013981;28;20209;-31
2022/09/25 06:46:26;;;;;;;2.90;2.50;;;;;;;23.18;54.64;97000.72;5024968;28;20212;-31
2022/09/25 06:48:53;;;;;;;3.23;2.53;;;;;;;23.19;54.49;96994.75;5021139;28;20225;-31
2022/09/25 06:51:23;;;;;;;3.90;3.60;;;;;;;23.19;54.89;97011.00;5019744;28;20735;-31
2022/09/25 06:53:52;;;;;;;6.67;5.97;;;;;;;23.12;55.11;97003.19;5022463;28;20201;-31
2022/09/25 06:56:19;;;;;;;8.90;7.97;;;;;;;23.14;54.88;97012.63;5021723;28;20210;-31
2022/09/25 06:58:46;;;;;;;9.50;8.60;;;;;;;23.20;54.83;97027.22;5026166;28;20229;-31
2022/09/25 07:01:12;;;;;;;10.03;9.13;;;;;;;23.15;54.70;97018.63;5020790;28;20216;-31
2022/09/25 07:03:46;;;;;;;11.23;9.50;;;;;;;23.14;54.66;97010.06;5031181;28;20225;-31
2022/09/25 07:06:23;;;;;;;13.87;9.60;;;;;;;23.20;54.71;97019.53;5023500;28;20695;-31
2022/09/25 07:08:49;;;;;;;18.50;10.33;;;;;;;23.14;54.71;96998.94;5026187;28;20220;-31
2022/09/25 07:11:20;;;;;;;13.07;10.43;;;;;;;23.20;54.87;97019.53;5029592;28;20201;-31
2022/09/25 07:13:48;;;;;;;13.40;10.60;;;;;;;23.20;54.95;97043.47;5027965;28;20301;-31
2022/09/25 07:16:16;;;;;;;14.03;11.30;;;;;;;23.16;54.79;97018.66;5023559;28;20637;-31
2022/09/25 07:18:43;;;;;;;15.47;11.20;;;;;;;23.19;54.79;97034.06;5028886;28;20267;-31
2022/09/25 07:21:11;;;;;;;13.47;12.17;;;;;;;23.19;54.77;97028.94;5023523;28;20211;-31
2022/09/25 07:23:38;;;;;;;13.07;11.77;;;;;;;23.15;54.69;97028.88;5022925;28;20452;-31
2022/09/25 07:26:09;;;;;;;15.17;12.47;;;;;;;23.09;54.67;97013.38;5026556;28;20217;-31
2022/09/25 07:28:37;;;;;;;11.53;10.30;;;;;;;23.19;54.74;97033.22;5026326;28;20201;-31
2022/09/25 07:31:16;;;;;;;12.47;11.17;;;;;;;23.13;54.68;97015.16;5027289;28;20211;-31
2022/09/25 07:33:43;;;;;;;11.87;10.67;;;;;;;23.18;54.78;97027.19;5030094;28;20202;-31
2022/09/25 07:36:10;;;;;;;11.70;10.43;;;;;;;23.18;54.63;97024.63;5024193;28;20206;-31
2022/09/25 07:38:38;;;;;;;10.93;9.77;;;;;;;23.11;54.56;97014.28;4986894;28;1121220;-31
2022/09/25 07:41:05;;;;;;;9.73;8.73;;;;;;;23.18;54.72;97031.50;5030028;28;20259;-31
2022/09/25 07:43:32;;;;;;;12.50;9.43;;;;;;;23.18;54.99;97032.34;5030021;28;20202;-31
2022/09/25 07:45:59;;;;;;;9.50;8.60;;;;;;;23.15;54.83;97023.75;5029441;28;20214;-31
2022/09/25 07:48:26;;;;;;;9.20;8.10;;;;;;;23.18;54.72;97029.78;5023320;28;20264;-31
2022/09/25 07:50:54;;;;;;;11.03;8.27;;;;;;;23.17;54.93;97035.75;5015700;28;20207;-31
2022/09/25 07:53:20;;;;;;;8.47;7.07;;;;;;;23.18;54.81;97036.63;5024963;28;20205;-31
2022/09/25 07:55:47;;;;;;;8.70;7.90;;;;;;;22.99;54.88;97003.84;5021051;28;20206;-31
2022/09/25 07:58:13;;;;;;;8.23;7.30;;;;;;;23.19;54.83;97036.63;5017388;28;20209;-31
2022/09/25 08:00:40;;;;;;;8.47;7.53;;;;;;;23.18;54.83;97032.34;5019753;28;20229;-31
2022/09/25 08:03:07;;;;;;;7.97;7.17;;;;;;;23.20;54.57;97037.47;5018528;28;20217;-31
2022/09/25 08:05:33;;;;;;;8.47;7.57;;;;;;;23.20;54.81;97030.66;5025194;28;20206;-31
2022/09/25 08:08:00;;;;;;;7.77;7.03;;;;;;;23.20;54.61;97038.34;5017850;28;20209;-31
2022/09/25 08:10:26;;;;;;;8.30;7.30;;;;;;;23.19;55.10;97031.50;5020368;28;20229;-31
2022/09/25 08:12:53;;;;;;;7.90;7.10;;;;;;;23.12;54.70;97021.16;5026607;28;20201;-31
2022/09/25 08:15:19;;;;;;;8.30;7.37;;;;;;;23.20;54.55;97027.22;5028885;28;20201;-31
2022/09/25 08:17:46;;;;;;;8.00;7.20;;;;;;;23.18;54.96;97032.34;5027963;28;20209;-31
2022/09/25 08:20:12;;;;;;;6.80;6.10;;;;;;;23.18;54.23;97029.78;5019604;28;20252;-31
2022/09/25 08:22:39;;;;;;;7.53;6.83;;;;;;;23.19;54.53;97028.94;5025784;28;20228;-31
2022/09/25 08:25:06;;;;;;;7.67;6.87;;;;;;;23.18;54.63;97024.63;5015229;28;20210;-31
2022/09/25 08:27:38;;;;;;;7.13;6.33;;;;;;;23.19;54.63;97028.06;5027477;28;20568;-31
2022/09/25 08:30:06;;;;;;;6.47;5.87;;;;;;;23.19;54.57;97030.66;5024445;28;20217;-31
2022/09/25 08:32:33;;;;;;;6.70;6.10;;;;;;;23.19;54.49;97023.81;5022205;28;20210;-31
2022/09/25 08:35:00;;;;;;;6.90;6.20;;;;;;;23.19;54.57;97028.94;5023323;28;20206;-31
2022/09/25 08:37:28;;;;;;;6.50;5.90;;;;;;;23.19;54.66;97030.66;5028858;28;20637;-31
2022/09/25 08:39:54;;;;;;;6.77;6.17;;;;;;;23.20;54.50;97029.78;5023923;28;20611;-31
2022/09/25 08:42:28;;;;;;;6.43;5.83;;;;;;;23.19;54.57;97023.81;5022640;28;20264;-31
2022/09/25 08:50:39;;;;;;;6.10;5.50;;;;;;;23.13;54.39;97016.03;5011449;28;20714;-31
2022/09/25 08:53:24;;;;;;;6.57;5.97;;;;;;;23.19;54.54;97028.94;5022512;28;20202;-31
2022/09/25 08:58:41;;;;;;;5.87;5.30;;;;;;;23.19;54.61;97022.94;5019782;28;20202;-31
2022/09/25 09:01:13;;;;;;;5.87;5.20;;;;;;;23.11;54.45;97011.72;5022693;28;20253;-31
2022/09/25 09:03:49;;;;;;;5.93;5.33;;;;;;;23.04;54.53;96992.81;5025283;28;20728;-31
2022/09/25 09:06:16;;;;;;;6.40;5.20;;;;;;;23.19;54.63;97025.50;5021692;28;20392;-31
2022/09/25 09:08:46;;;;;;;5.70;4.90;;;;;;;23.18;54.52;97026.38;5021880;28;20202;-31
2022/09/25 09:11:42;;;;;;;7.27;4.87;;;;;;;23.16;54.65;97023.78;5022532;28;20244;-32
2022/09/25 09:14:12;;;;;;;5.80;5.30;;;;;;;23.18;54.71;97016.13;5025753;28;20210;-31
2022/09/25 09:16:45;;;;;;;5.57;5.07;;;;;;;23.18;54.64;97016.94;5006667;28;20204;-31
2022/09/25 09:19:12;;;;;;;5.67;5.03;;;;;;;23.12;54.66;97004.03;5022385;28;20244;-31
2022/09/25 09:22:03;;;;;;;7.73;5.03;;;;;;;23.18;54.68;97016.94;5022934;28;20201;-31
2022/09/25 09:24:38;;;;;;;6.17;5.03;;;;;;;23.17;54.67;97004.13;5027712;28;20206;-31
2022/09/25 09:27:47;;;;;;;5.23;4.73;;;;;;;23.18;54.47;97000.72;5028828;28;20656;-31
2022/09/25 09:30:21;;;;;;;6.27;4.70;;;;;;;23.17;54.66;97004.97;5023661;28;20228;-31
2022/09/25 09:33:25;;;;;;;7.17;5.10;;;;;;;23.18;54.55;97000.72;5019228;28;20703;-31
2022/09/25 09:36:06;;;;;;;6.63;4.53;;;;;;;23.15;54.57;97004.09;5022333;28;20196;-31
2022/09/25 09:38:51;;;;;;;7.20;5.00;;;;;;;23.17;53.33;97002.41;5028765;28;20249;-31
2022/09/25 09:41:34;;;;;;;7.60;5.00;;;;;;;23.16;53.51;97008.41;5018620;28;20228;-31
2022/09/25 09:44:24;;;;;;;7.10;4.03;;;;;;;23.15;54.04;97000.69;5024395;28;20220;-31
2022/09/25 09:46:52;;;;;;;10.50;4.83;;;;;;;23.17;54.41;97007.53;5034223;28;20213;-31
2022/09/25 09:49:28;;;;;;;4.63;4.23;;;;;;;23.18;53.96;97008.41;5027759;28;20221;-31
2022/09/25 09:52:03;;;;;;;5.50;5.00;;;;;;;23.19;54.22;97007.56;5007971;28;20212;-31
2022/09/25 09:54:36;;;;;;;5.10;4.33;;;;;;;23.19;54.44;97011.00;5026308;28;20592;-31
2022/09/25 09:57:04;;;;;;;12.07;4.93;;;;;;;23.12;54.36;96990.38;5009652;28;20202;-31
2022/09/25 09:59:42;;;;;;;5.23;4.60;;;;;;;23.21;54.46;97009.31;5010619;28;20229;-31
2022/09/25 10:02:13;;;;;;;5.60;4.37;;;;;;;23.20;54.68;97005.03;5004527;28;20829;-31
2022/09/25 10:04:40;;;;;;;6.20;4.70;;;;;;;23.19;54.73;96992.19;5027114;28;21068;-31
2022/09/25 10:07:17;;;;;;;4.23;3.83;;;;;;;23.22;54.52;96995.66;5004856;28;20210;-31
2022/09/25 10:09:43;;;;;;;5.30;4.33;;;;;;;23.19;54.63;96982.81;5016611;28;20301;-31
2022/09/25 10:12:25;;;;;;;4.80;4.40;;;;;;;23.23;54.63;96994.81;5019312;28;20677;-31
2022/09/25 10:14:52;;;;;;;6.77;4.90;;;;;;;23.23;54.44;96989.69;5011309;28;20201;-31
2022/09/25 10:17:18;;;;;;;5.17;4.50;;;;;;;23.14;54.74;96973.31;5026274;28;20671;-31
2022/09/25 10:19:52;;;;;;;5.07;4.27;;;;;;;23.23;54.50;96989.69;5025146;28;20221;-31
2022/09/25 10:22:21;;;;;;;5.10;4.60;;;;;;;23.24;54.58;96990.59;5028217;28;20209;-31
2022/09/25 10:24:57;;;;;;;4.53;4.13;;;;;;;23.24;54.61;96988.88;5027903;28;20213;-31
2022/09/25 10:27:34;;;;;;;4.67;4.27;;;;;;;23.25;54.56;96985.50;5031244;28;20239;-31
2022/09/25 10:30:10;;;;;;;5.67;4.33;;;;;;;23.26;54.42;96991.47;5031425;28;20217;-31
2022/09/25 10:32:45;;;;;;;4.70;4.20;;;;;;;23.25;54.65;96989.75;5032473;28;20647;-31
2022/09/25 10:35:16;;;;;;;6.00;4.70;;;;;;;23.26;54.56;96988.88;5029027;28;20212;-31
2022/09/25 10:37:43;;;;;;;6.20;4.80;;;;;;;23.26;54.75;96983.75;5012665;28;20205;-31
2022/09/25 10:40:34;;;;;;;6.27;4.40;;;;;;;23.25;54.36;96982.06;5017891;28;20234;-31
2022/09/25 10:43:10;;;;;;;5.00;4.03;;;;;;;23.25;54.43;96980.38;5024032;28;20244;-31
2022/09/25 10:45:39;;;;;;;7.93;4.30;;;;;;;23.20;54.44;96976.81;5021995;28;20201;-31
2022/09/25 10:51:10;;;;;;;3.87;3.40;;;;;;;23.18;54.54;96970.81;5026598;28;20496;-31
2022/09/25 10:53:37;;;;;;;5.30;4.30;;;;;;;23.23;54.63;96981.13;5022480;28;20201;-31
2022/09/25 10:56:07;;;;;;;5.70;4.30;;;;;;;23.21;54.66;96975.97;5020436;28;20206;-31
2022/09/25 10:58:55;;;;;;;4.63;4.23;;;;;;;23.24;54.56;96983.75;5006434;28;20212;-31
2022/09/25 11:01:33;;;;;;;6.23;4.27;;;;;;;23.24;54.73;96988.88;5012778;28;20230;-31
2022/09/25 11:04:03;;;;;;;4.10;3.80;;;;;;;23.25;54.48;96997.44;5019928;28;20700;-31
2022/09/25 11:06:33;;;;;;;5.33;4.20;;;;;;;23.24;54.61;97003.41;5027701;28;20233;-31
2022/09/25 11:09:08;;;;;;;3.90;3.60;;;;;;;23.25;54.59;97005.13;5028662;28;20246;-31
2022/09/25 11:11:35;;;;;;;4.40;3.97;;;;;;;23.22;54.67;97000.78;5030415;28;20220;-31
2022/09/25 11:14:03;;;;;;;4.80;4.30;;;;;;;23.22;54.48;97005.06;5031361;28;20206;-31
2022/09/25 11:16:46;;;;;;;6.33;4.40;;;;;;;23.26;54.53;97006.84;5027836;28;20590;-32
2022/09/25 11:19:16;;;;;;;4.90;4.40;;;;;;;23.25;54.67;97005.13;5028364;28;20244;-31
2022/09/25 11:21:58;;;;;;;5.53;3.97;;;;;;;23.24;54.65;97014.50;5024417;28;20202;-31
2022/09/25 11:24:36;;;;;;;4.30;3.90;;;;;;;23.25;54.69;97007.69;5010329;28;20201;-31
2022/09/25 11:27:13;;;;;;;4.57;3.97;;;;;;;23.24;54.55;97000.84;5025521;28;20210;-31
2022/09/25 11:30:00;;;;;;;5.53;4.63;;;;;;;23.23;54.64;97001.63;5038562;28;20316;-31
2022/09/25 11:32:54;;;;;;;4.50;4.10;;;;;;;23.23;54.75;97002.50;5029471;28;20206;-31
2022/09/25 11:35:48;;;;;;;4.40;4.00;;;;;;;23.24;54.66;96990.59;5033054;28;20202;-31
2022/09/25 11:41:39;;;;;;;8.00;3.97;;;;;;;23.24;54.61;96998.28;5022095;28;20225;-31
2022/09/25 11:44:31;;;;;;;4.87;4.30;;;;;;;23.23;54.85;96987.13;5020310;28;20206;-31
2022/09/25 11:47:05;;;;;;;4.90;4.30;;;;;;;23.23;54.94;96989.69;5019560;28;20741;-31
2022/09/25 11:49:35;;;;;;;4.73;3.87;;;;;;;23.13;54.91;96967.34;5033706;28;20232;-31
2022/09/25 11:52:17;;;;;;;4.60;4.13;;;;;;;23.23;54.91;96976.00;5022538;28;20583;-31
2022/09/25 11:55:14;;;;;;;5.30;4.17;;;;;;;23.24;55.10;96975.22;5019029;28;20205;-31
2022/09/25 11:57:44;;;;;;;5.00;4.40;;;;;;;23.23;54.86;96969.19;5031872;28;20791;-31
2022/09/25 12:00:20;;;;;;;5.43;4.30;;;;;;;23.23;54.96;96965.75;5034487;28;20654;-31
2022/09/25 12:03:17;;;;;;;4.83;4.23;;;;;;;23.24;54.96;96967.53;5018909;28;20223;-32
2022/09/25 12:06:11;;;;;;;5.37;4.30;;;;;;;23.15;54.77;96944.28;5016177;28;20216;-31
2022/09/25 12:08:56;;;;;;;4.23;3.83;;;;;;;23.23;55.09;96958.06;5017824;28;20209;-31
2022/09/25 12:11:46;;;;;;;4.63;3.90;;;;;;;23.12;54.97;96939.13;5016739;28;20827;-31